Time;durP1;ratioP1;P1;durP2;ratioP2;P2;SDS_P1;SDS_P2;PMS_P1;PMS_P2;Temp;Humidity;BMP_temperature;BMP_pressure;BME280_temperature;BME280_humidity;BME280_pressure;Samples;Min_cycle;Max_cycle;Signal;HPM_P1;HPM_P2
2023/03/23 00:01:02;;;;;;;15.90;10.43;;;;;;;8.34;92.60;94843.41;5073114;28;20454;-81
2023/03/23 00:03:31;;;;;;;14.77;8.43;;;;;;;8.36;92.62;94846.72;5072838;28;20536;-81
2023/03/23 00:06:04;;;;;;;10.97;8.57;;;;;;;8.29;91.93;94832.44;5073153;28;20441;-81
2023/03/23 00:08:37;;;;;;;11.97;9.00;;;;;;;8.42;91.99;94848.06;5073064;28;20941;-81
2023/03/23 00:11:05;;;;;;;12.00;10.17;;;;;;;8.39;92.19;94849.13;5072795;28;20444;-82
2023/03/23 00:13:32;;;;;;;17.83;10.77;;;;;;;8.31;91.74;94847.06;5072763;28;20832;-82
2023/03/23 00:15:59;;;;;;;15.00;9.67;;;;;;;8.28;92.10;94849.06;5072689;28;20506;-81
2023/03/23 00:18:26;;;;;;;13.67;8.40;;;;;;;8.26;93.47;94848.34;5072710;28;20450;-80
2023/03/23 00:20:55;;;;;;;13.00;9.70;;;;;;;8.22;93.70;94845.16;5072692;28;20446;-81
2023/03/23 00:23:24;;;;;;;14.80;9.10;;;;;;;8.19;92.58;94844.56;5072613;28;20458;-81
2023/03/23 00:25:56;;;;;;;16.00;9.20;;;;;;;8.26;91.73;94859.66;5073242;28;20446;-81
2023/03/23 00:28:25;;;;;;;13.93;10.63;;;;;;;8.24;91.67;94856.31;5054321;28;20533;-82
2023/03/23 00:30:56;;;;;;;13.50;9.17;;;;;;;8.32;91.80;94859.16;5073030;28;20458;-82
2023/03/23 00:33:24;;;;;;;11.63;8.93;;;;;;;8.36;90.97;94862.41;5072127;28;20454;-81
2023/03/23 00:35:52;;;;;;;17.30;10.30;;;;;;;8.39;92.71;94859.59;5072485;28;20812;-81
2023/03/23 00:38:19;;;;;;;11.83;9.40;;;;;;;8.43;93.04;94871.47;5072485;28;20450;-81
2023/03/23 00:40:47;;;;;;;12.97;9.13;;;;;;;8.39;92.91;94875.28;5072625;28;20443;-82
2023/03/23 00:43:16;;;;;;;18.83;9.17;;;;;;;8.38;93.29;94884.03;5072393;28;20482;-81
2023/03/23 00:45:44;;;;;;;11.60;9.20;;;;;;;8.31;94.32;94875.81;5072399;28;20957;-81
2023/03/23 00:48:12;;;;;;;12.60;8.83;;;;;;;8.33;93.08;94880.91;5072383;28;21001;-81
2023/03/23 00:50:39;;;;;;;14.60;9.87;;;;;;;8.27;92.62;94884.84;5072295;28;20537;-82
2023/03/23 00:53:06;;;;;;;11.13;9.20;;;;;;;8.30;92.57;94886.38;5072165;28;20786;-82
2023/03/23 00:55:33;;;;;;;17.57;9.50;;;;;;;8.28;92.74;94883.88;5072256;28;20987;-82
2023/03/23 00:58:00;;;;;;;13.67;10.40;;;;;;;8.30;92.93;94881.16;5072778;28;20446;-82
2023/03/23 01:00:28;;;;;;;10.33;8.80;;;;;;;8.37;92.62;94887.59;5072172;28;20991;-82
2023/03/23 01:02:55;;;;;;;12.33;8.40;;;;;;;8.32;93.71;94874.03;5072626;28;20446;-81
2023/03/23 01:05:22;;;;;;;14.63;10.23;;;;;;;8.40;93.65;94887.41;5072314;28;20444;-82
2023/03/23 01:07:49;;;;;;;10.03;8.80;;;;;;;8.43;94.49;94873.25;5072091;28;20444;-81
2023/03/23 01:10:17;;;;;;;10.93;8.43;;;;;;;8.49;95.67;94871.00;5071930;28;20445;-81
2023/03/23 01:12:45;;;;;;;12.80;9.43;;;;;;;8.52;95.15;94876.00;5071970;28;20443;-82
2023/03/23 01:15:16;;;;;;;10.50;8.70;;;;;;;8.51;95.36;94863.88;5072001;28;20494;-81
2023/03/23 01:17:45;;;;;;;10.37;8.93;;;;;;;8.59;95.81;94871.94;5072200;28;20450;-82
2023/03/23 01:20:14;;;;;;;16.20;8.93;;;;;;;8.59;95.87;94868.50;5071888;28;20457;-82
2023/03/23 01:22:41;;;;;;;12.50;9.27;;;;;;;8.63;96.28;94865.53;5037080;28;20438;-80
2023/03/23 01:25:10;;;;;;;10.60;7.97;;;;;;;8.63;94.64;94865.53;5072020;28;20438;-81
2023/03/23 01:27:37;;;;;;;9.50;8.13;;;;;;;8.59;94.22;94858.03;5053567;28;20450;-82
2023/03/23 01:30:05;;;;;;;13.43;8.83;;;;;;;8.49;93.96;94859.72;5071716;28;20939;-81
2023/03/23 01:32:32;;;;;;;13.40;9.17;;;;;;;8.45;95.07;94850.44;5071947;28;20449;-81
2023/03/23 01:35:01;;;;;;;11.30;8.13;;;;;;;8.44;95.97;94854.00;5071954;28;20496;-81
2023/03/23 01:37:27;;;;;;;14.30;8.50;;;;;;;8.40;95.92;94853.41;5072111;28;20467;-81
2023/03/23 01:39:54;;;;;;;15.63;11.37;;;;;;;8.38;96.75;94850.06;5071871;28;20442;-81
2023/03/23 01:42:23;;;;;;;12.17;8.47;;;;;;;8.30;95.99;94848.00;5071887;28;20446;-82
2023/03/23 01:45:27;;;;;;;13.60;9.10;;;;;;;8.25;95.90;94849.31;5072537;28;20456;-82
2023/03/23 01:48:04;;;;;;;11.37;8.13;;;;;;;8.18;96.70;94846.34;5075791;28;20571;-82
2023/03/23 01:50:38;;;;;;;8.90;7.57;;;;;;;8.13;97.52;94837.19;5075172;28;20989;-82
2023/03/23 01:53:08;;;;;;;10.07;9.00;;;;;;;8.19;97.54;94844.56;5075980;28;20444;-81
2023/03/23 01:55:38;;;;;;;12.80;7.37;;;;;;;8.15;97.68;94832.69;5075491;28;21010;-82
2023/03/23 01:58:06;;;;;;;13.03;8.23;;;;;;;8.16;96.95;94832.56;5073329;28;20975;-82
2023/03/23 02:00:34;;;;;;;12.57;9.10;;;;;;;8.15;96.25;94832.69;5075582;28;20853;-81
2023/03/23 02:03:01;;;;;;;9.50;7.97;;;;;;;8.16;97.08;94840.41;5075187;28;20446;-81
2023/03/23 02:05:33;;;;;;;11.77;8.60;;;;;;;8.19;97.23;94836.72;5075131;28;20450;-82
2023/03/23 02:08:05;;;;;;;13.47;8.47;;;;;;;8.22;98.30;94834.69;5075186;28;20446;-80
2023/03/23 02:10:33;;;;;;;13.40;8.87;;;;;;;8.19;97.85;94824.47;5075046;28;20455;-82
2023/03/23 02:13:02;;;;;;;10.90;8.40;;;;;;;8.27;98.44;94831.72;5075424;28;20459;-80
2023/03/23 02:15:39;;;;;;;13.00;9.33;;;;;;;8.24;96.79;94834.56;5074952;28;20488;-81
2023/03/23 02:18:14;;;;;;;16.07;10.13;;;;;;;8.31;96.53;94836.59;5075086;28;20538;-81
2023/03/23 02:21:01;;;;;;;13.90;11.53;;;;;;;8.29;97.03;94838.50;5074890;28;20442;-82
2023/03/23 02:24:27;;;;;;;17.60;12.33;;;;;;;8.43;99.04;94837.47;5075291;28;20555;-81
2023/03/23 02:27:00;;;;;;;18.57;10.90;;;;;;;8.43;97.60;94834.03;4954694;28;20462;-82
2023/03/23 02:29:48;;;;;;;11.33;9.40;;;;;;;8.41;98.15;94834.16;4954424;28;20852;-81
2023/03/23 02:32:40;;;;;;;12.53;8.40;;;;;;;8.42;97.60;94846.28;4954536;29;20466;-82
2023/03/23 02:35:12;;;;;;;15.30;9.77;;;;;;;8.29;96.46;94835.06;4954329;28;20488;-81
2023/03/23 02:37:45;;;;;;;15.97;10.27;;;;;;;8.28;96.70;94842.06;4954440;29;20946;-81
2023/03/23 02:40:16;;;;;;;14.10;10.37;;;;;;;8.20;97.52;94839.22;4954362;29;20448;-81
2023/03/23 02:42:46;;;;;;;14.90;9.23;;;;;;;8.23;97.43;94843.38;4954444;28;20874;-82
2023/03/23 02:45:17;;;;;;;14.73;11.30;;;;;;;8.22;98.08;94844.31;4954138;29;20447;-82
2023/03/23 02:47:44;;;;;;;16.70;12.03;;;;;;;8.27;97.20;94850.03;4953972;28;20469;-82
2023/03/23 02:50:15;;;;;;;16.13;11.47;;;;;;;8.23;97.50;94853.81;4954118;28;20953;-81
2023/03/23 02:52:45;;;;;;;17.90;12.20;;;;;;;8.25;97.62;94862.38;4954186;29;20463;-81
2023/03/23 02:55:13;;;;;;;16.77;11.07;;;;;;;8.20;97.95;94849.66;4953877;29;20496;-82
2023/03/23 02:57:41;;;;;;;22.50;13.17;;;;;;;8.25;97.94;94867.59;4978020;28;20448;-82
2023/03/23 03:00:12;;;;;;;17.60;12.13;;;;;;;7.86;98.45;94874.06;5012204;28;20499;-82
2023/03/23 03:02:41;;;;;;;22.17;14.70;;;;;;;7.64;99.50;94877.41;5055220;28;20454;-83
2023/03/23 03:05:18;;;;;;;34.20;17.50;;;;;;;7.18;97.78;94880.75;5074363;28;20437;-81
2023/03/23 03:08:08;;;;;;;24.00;15.13;;;;;;;7.18;96.87;94887.75;5074391;28;20470;-81
2023/03/23 03:10:43;;;;;;;27.53;19.27;;;;;;;7.07;97.93;94893.72;5074092;28;20446;-82
2023/03/23 03:13:19;;;;;;;38.13;17.40;;;;;;;6.80;97.58;94884.28;5074068;28;20954;-80
2023/03/23 03:15:55;;;;;;;29.20;17.27;;;;;;;6.70;99.08;94900.72;5074046;28;20485;-81
2023/03/23 03:18:27;;;;;;;56.67;19.63;;;;;;;6.58;98.69;94886.72;5074129;28;20861;-81
2023/03/23 03:21:00;;;;;;;52.23;20.93;;;;;;;6.58;98.93;94902.38;5073893;28;20439;-82
2023/03/23 03:23:29;;;;;;;31.50;19.00;;;;;;;6.58;99.49;94906.75;5073626;28;20444;-82
2023/03/23 03:25:58;;;;;;;67.57;20.57;;;;;;;6.65;100.00;94908.84;5073955;28;20479;-81
2023/03/23 03:28:26;;;;;;;42.83;19.30;;;;;;;6.67;99.63;94906.13;5073933;28;20436;-81
2023/03/23 03:30:57;;;;;;;63.87;20.00;;;;;;;6.66;99.33;94907.91;5073635;28;20452;-82
2023/03/23 03:33:25;;;;;;;52.53;19.00;;;;;;;6.49;99.11;94887.38;5073340;28;20448;-81
2023/03/23 03:35:54;;;;;;;40.43;17.87;;;;;;;6.53;99.27;94888.81;5073200;28;20922;-82
2023/03/23 03:38:23;;;;;;;27.43;18.10;;;;;;;6.63;100.00;94895.06;5073548;28;20459;-81
2023/03/23 03:40:49;;;;;;;56.10;25.27;;;;;;;6.52;100.00;94885.38;5073880;28;20444;-81
2023/03/23 03:43:16;;;;;;;28.37;20.67;;;;;;;6.57;99.64;94889.44;5073318;28;20502;-82
2023/03/23 03:45:44;;;;;;;30.83;20.00;;;;;;;6.67;100.00;94896.53;5073290;28;20874;-82
2023/03/23 03:48:11;;;;;;;28.57;19.70;;;;;;;6.77;100.00;94897.56;5073110;28;20575;-81
2023/03/23 03:50:38;;;;;;;42.07;19.93;;;;;;;6.72;100.00;94891.84;5073304;28;20503;-81
2023/03/23 03:53:05;;;;;;;38.70;20.20;;;;;;;6.69;99.90;94888.59;5073171;28;20452;-82
2023/03/23 03:55:35;;;;;;;33.33;20.20;;;;;;;6.74;99.85;94897.78;5073182;28;20579;-81
2023/03/23 03:58:02;;;;;;;28.40;19.30;;;;;;;6.78;99.58;94896.63;5073128;28;20789;-82
2023/03/23 04:00:29;;;;;;;45.63;22.47;;;;;;;6.59;100.00;94890.16;5073279;28;20531;-81
2023/03/23 04:02:56;;;;;;;30.93;20.43;;;;;;;6.73;100.00;94896.09;5073048;28;20448;-82
2023/03/23 04:05:24;;;;;;;34.43;22.73;;;;;;;6.73;100.00;94875.25;5073042;28;20544;-81
2023/03/23 04:07:52;;;;;;;34.60;19.97;;;;;;;6.86;99.22;94890.03;5073149;28;20510;-81
2023/03/23 04:10:21;;;;;;;31.67;21.73;;;;;;;6.89;98.45;94889.81;5072941;28;20448;-82
2023/03/23 04:12:49;;;;;;;31.70;19.70;;;;;;;6.90;98.00;94886.25;5072929;28;20441;-82
2023/03/23 04:15:17;;;;;;;27.43;20.03;;;;;;;6.91;98.07;94890.53;5072873;28;20449;-82
2023/03/23 04:17:43;;;;;;;23.80;17.80;;;;;;;6.72;97.78;94878.78;5072940;28;20455;-82
2023/03/23 04:20:16;;;;;;;26.03;20.10;;;;;;;6.76;98.37;94888.06;5072803;28;20436;-82
2023/03/23 04:22:44;;;;;;;23.43;18.57;;;;;;;6.71;98.52;94874.53;5072525;28;21002;-86
2023/03/23 04:25:13;;;;;;;20.27;16.77;;;;;;;6.65;98.99;94877.56;5074230;28;20487;-81
2023/03/23 04:27:43;;;;;;;25.70;19.17;;;;;;;6.88;98.47;94888.97;5074206;28;20440;-81
2023/03/23 04:30:13;;;;;;;21.67;15.70;;;;;;;6.95;100.00;94884.19;5073561;28;20445;-81
2023/03/23 04:32:41;;;;;;;15.87;12.97;;;;;;;6.95;100.00;94876.34;5073607;28;20768;-84
2023/03/23 04:35:11;;;;;;;14.30;10.03;;;;;;;6.94;100.00;94878.13;5073908;28;20808;-81
2023/03/23 04:37:40;;;;;;;15.10;10.17;;;;;;;6.97;100.00;94864.88;5074293;28;20468;-81
2023/03/23 04:40:11;;;;;;;10.70;9.10;;;;;;;7.12;100.00;94876.81;5073640;28;20803;-81
2023/03/23 04:42:39;;;;;;;15.90;9.63;;;;;;;7.16;100.00;94874.81;5073518;28;20799;-81
2023/03/23 04:45:08;;;;;;;10.00;9.00;;;;;;;7.23;100.00;94876.06;5073306;28;20429;-80
2023/03/23 04:47:40;;;;;;;15.30;9.13;;;;;;;7.29;100.00;94877.38;5073357;28;20480;-82
2023/03/23 04:50:09;;;;;;;13.97;10.13;;;;;;;7.28;100.00;94875.72;5073593;28;20472;-81
2023/03/23 04:52:40;;;;;;;15.27;9.63;;;;;;;7.26;100.00;94875.00;5073376;28;20923;-81
2023/03/23 04:55:09;;;;;;;11.73;9.13;;;;;;;7.40;100.00;94899.13;5074069;28;20452;-80
2023/03/23 04:57:36;;;;;;;11.90;10.07;;;;;;;7.45;100.00;94891.81;5073445;28;20486;-80
2023/03/23 05:00:08;;;;;;;12.50;9.27;;;;;;;7.49;100.00;94891.56;5074074;28;20428;-80
2023/03/23 05:02:36;;;;;;;14.63;10.47;;;;;;;7.63;100.00;94902.69;5073049;28;20472;-81
2023/03/23 05:05:03;;;;;;;12.87;9.00;;;;;;;7.72;100.00;94901.19;5072271;28;20448;-80
2023/03/23 05:07:30;;;;;;;12.80;9.90;;;;;;;7.79;100.00;94905.00;5071890;28;20452;-80
2023/03/23 05:09:57;;;;;;;16.83;10.37;;;;;;;7.87;100.00;94907.91;5072626;28;20445;-81
2023/03/23 05:12:24;;;;;;;17.73;11.00;;;;;;;7.94;100.00;94908.28;5054809;28;20441;-81
2023/03/23 05:14:51;;;;;;;12.97;10.70;;;;;;;7.98;100.00;94920.16;5073301;28;20452;-80
2023/03/23 05:17:18;;;;;;;12.00;10.00;;;;;;;8.07;100.00;94912.47;5072915;28;20480;-81
2023/03/23 05:19:47;;;;;;;18.53;13.00;;;;;;;8.20;100.00;94917.63;5073489;28;20539;-80
2023/03/23 05:22:14;;;;;;;23.27;18.20;;;;;;;8.03;100.00;94911.03;5077319;28;20451;-80
2023/03/23 05:24:42;;;;;;;27.77;16.90;;;;;;;8.11;100.00;94912.25;5077091;28;20430;-81
2023/03/23 05:27:09;;;;;;;19.10;12.83;;;;;;;8.11;100.00;94913.09;5076873;28;20472;-80
2023/03/23 05:29:36;;;;;;;14.93;12.03;;;;;;;8.06;100.00;94929.09;5076361;28;20444;-81
2023/03/23 05:32:05;;;;;;;25.57;17.77;;;;;;;8.02;100.00;94932.06;5042817;28;20458;-80
2023/03/23 05:34:33;;;;;;;25.50;18.73;;;;;;;7.82;100.00;94932.72;5057356;28;20454;-81
2023/03/23 05:37:02;;;;;;;46.13;24.43;;;;;;;7.72;100.00;94935.13;5056963;28;21045;-81
2023/03/23 05:39:30;;;;;;;31.60;22.30;;;;;;;7.57;100.00;94942.31;5056898;28;20447;-80
2023/03/23 05:41:58;;;;;;;25.37;19.90;;;;;;;7.35;100.00;94937.81;5056934;28;20447;-81
2023/03/23 05:44:26;;;;;;;25.33;20.17;;;;;;;7.52;100.00;94940.97;5057098;28;20433;-81
2023/03/23 05:46:53;;;;;;;29.23;19.90;;;;;;;7.57;100.00;94944.09;5054557;28;20504;-82
2023/03/23 05:49:20;;;;;;;24.50;18.63;;;;;;;7.47;100.00;94955.19;5057402;28;20433;-82
2023/03/23 05:51:49;;;;;;;31.17;21.87;;;;;;;7.43;100.00;94953.75;5056280;28;20846;-80
2023/03/23 05:54:17;;;;;;;26.80;19.40;;;;;;;7.40;100.00;94959.19;5056239;28;20452;-81
2023/03/23 05:56:44;;;;;;;28.47;20.47;;;;;;;7.47;100.00;94957.78;5056505;28;20846;-83
2023/03/23 05:59:11;;;;;;;38.50;23.60;;;;;;;7.50;100.00;94945.47;5055963;28;20450;-87
2023/03/23 06:01:39;;;;;;;42.73;22.97;;;;;;;7.60;100.00;94941.25;5056505;28;20438;-82
2023/03/23 06:04:06;;;;;;;41.00;27.43;;;;;;;7.84;100.00;94957.78;5056316;28;20454;-82
2023/03/23 06:06:33;;;;;;;34.23;22.57;;;;;;;7.83;100.00;94956.09;5056513;28;20454;-82
2023/03/23 06:09:00;;;;;;;33.77;22.10;;;;;;;7.95;100.00;94956.97;5056517;28;20429;-82
2023/03/23 06:11:28;;;;;;;29.50;23.17;;;;;;;8.03;100.00;94957.22;5055677;28;20457;-82
2023/03/23 06:13:55;;;;;;;30.80;22.37;;;;;;;8.13;100.00;94960.03;5074823;28;20446;-79
2023/03/23 06:16:22;;;;;;;26.73;21.30;;;;;;;8.29;100.00;94957.91;5074843;28;20475;-80
2023/03/23 06:18:49;;;;;;;30.10;21.70;;;;;;;8.48;100.00;94952.19;5057004;28;20438;-81
2023/03/23 06:21:18;;;;;;;31.27;22.13;;;;;;;8.80;100.00;94961.03;5076012;28;20448;-81
2023/03/23 06:23:45;;;;;;;27.93;20.57;;;;;;;8.71;100.00;94955.69;5057697;28;20494;-81
2023/03/23 06:26:16;;;;;;;36.67;23.93;;;;;;;8.76;100.00;94950.91;5075976;28;20831;-81
2023/03/23 06:28:44;;;;;;;42.00;26.30;;;;;;;8.58;100.00;94961.81;5076409;28;20808;-82
2023/03/23 06:31:11;;;;;;;36.93;25.23;;;;;;;8.67;100.00;94966.38;5056624;28;20446;-81
2023/03/23 06:33:39;;;;;;;38.70;25.53;;;;;;;8.83;100.00;94967.81;5075312;28;20434;-79
2023/03/23 06:36:06;;;;;;;36.77;27.07;;;;;;;8.65;100.00;94959.56;5075742;28;20985;-81
2023/03/23 06:38:33;;;;;;;37.43;25.20;;;;;;;8.51;100.00;94968.47;5076158;28;20430;-81
2023/03/23 06:41:00;;;;;;;34.30;23.10;;;;;;;8.55;100.00;94969.06;5056254;28;20962;-76
2023/03/23 06:43:27;;;;;;;34.33;25.13;;;;;;;8.53;100.00;94973.59;5055849;28;20462;-80
2023/03/23 06:45:55;;;;;;;38.50;24.80;;;;;;;8.52;100.00;94974.53;5073804;28;20451;-82
2023/03/23 06:48:22;;;;;;;32.77;23.30;;;;;;;8.97;100.00;94976.28;5075214;28;20431;-82
2023/03/23 06:50:49;;;;;;;35.20;22.90;;;;;;;9.44;100.00;94987.44;5075342;28;20455;-83
2023/03/23 06:53:16;;;;;;;39.63;23.80;;;;;;;9.51;97.17;94979.91;5075429;28;20936;-82
2023/03/23 06:55:45;;;;;;;36.83;25.63;;;;;;;9.40;98.84;94983.38;5075010;28;20878;-83
2023/03/23 06:58:11;;;;;;;40.90;26.37;;;;;;;9.58;98.67;94999.44;5061040;28;20482;-82
2023/03/23 07:00:39;;;;;;;37.00;25.63;;;;;;;9.55;98.81;94991.84;5074820;28;20460;-82
2023/03/23 07:03:27;;;;;;;38.93;26.93;;;;;;;9.71;97.34;94992.28;5053169;28;20558;-83
2023/03/23 07:05:54;;;;;;;37.70;25.50;;;;;;;9.82;97.44;94997.47;5053276;28;20850;-79
2023/03/23 07:08:21;;;;;;;37.87;27.53;;;;;;;9.99;96.25;95001.38;5053004;28;20451;-82
2023/03/23 07:10:52;;;;;;;35.70;26.93;;;;;;;10.05;96.01;95000.88;5052922;28;20448;-83
2023/03/23 07:13:18;;;;;;;34.77;24.90;;;;;;;10.26;96.57;94998.34;5052898;28;20468;-82
2023/03/23 07:15:45;;;;;;;33.27;24.00;;;;;;;10.64;95.49;94992.53;5052978;28;20444;-82
2023/03/23 07:18:12;;;;;;;37.87;25.10;;;;;;;11.15;94.25;94986.47;5019821;28;20469;-82
2023/03/23 07:20:40;;;;;;;34.00;24.90;;;;;;;11.76;89.97;94995.13;5055282;28;20448;-82
2023/03/23 07:23:07;;;;;;;38.00;26.13;;;;;;;12.04;85.82;95003.25;5075334;28;21009;-82
2023/03/23 07:25:36;;;;;;;39.43;25.73;;;;;;;12.49;86.54;95002.75;5074509;28;20929;-82
2023/03/23 07:28:04;;;;;;;36.60;24.70;;;;;;;12.69;83.65;94999.09;5074551;28;20439;-87
2023/03/23 07:30:31;;;;;;;34.20;22.40;;;;;;;12.80;81.69;95001.59;5075243;28;20436;-83
2023/03/23 07:32:58;;;;;;;31.03;22.80;;;;;;;12.75;80.86;95001.22;5074710;28;20458;-83
2023/03/23 07:35:26;;;;;;;34.00;23.40;;;;;;;12.64;80.77;95003.97;5074688;28;20445;-83
2023/03/23 07:37:54;;;;;;;31.47;22.87;;;;;;;12.58;81.66;95007.16;5073414;28;20485;-83
2023/03/23 07:40:21;;;;;;;38.83;24.73;;;;;;;12.91;81.62;95011.97;5073842;28;20512;-83
2023/03/23 07:42:53;;;;;;;36.33;25.47;;;;;;;12.62;81.58;95006.75;5072910;28;20446;-82
2023/03/23 07:45:21;;;;;;;29.93;23.70;;;;;;;12.87;82.27;95010.59;5072543;28;20451;-83
2023/03/23 07:47:48;;;;;;;38.37;22.70;;;;;;;13.16;81.95;95009.72;5073344;28;20482;-83
2023/03/23 07:50:15;;;;;;;32.80;22.40;;;;;;;13.38;79.91;95005.94;5073326;28;20464;-85
2023/03/23 07:52:42;;;;;;;35.50;23.47;;;;;;;13.76;78.62;95007.56;5073305;28;20443;-82
2023/03/23 07:55:17;;;;;;;34.70;23.30;;;;;;;14.03;77.70;95014.66;5072724;28;20461;-83
2023/03/23 07:57:44;;;;;;;35.77;25.20;;;;;;;14.01;77.76;95013.97;5072690;28;20486;-84
2023/03/23 08:00:15;;;;;;;27.80;21.07;;;;;;;14.45;77.86;95014.94;5073197;28;20446;-84
2023/03/23 08:02:42;;;;;;;31.73;22.33;;;;;;;14.89;76.66;95026.41;5073258;28;20467;-84
2023/03/23 08:05:13;;;;;;;28.40;21.30;;;;;;;15.22;73.03;95022.19;5074490;28;20455;-84
2023/03/23 08:07:41;;;;;;;27.67;20.30;;;;;;;15.14;71.35;95027.44;5073955;28;20525;-89
2023/03/23 08:10:11;;;;;;;23.00;19.90;;;;;;;15.26;70.57;95026.19;5074190;28;20552;-85
2023/03/23 08:12:39;;;;;;;28.07;20.00;;;;;;;15.30;71.05;95027.50;5074449;28;20533;-78
2023/03/23 08:15:07;;;;;;;26.93;20.47;;;;;;;15.40;70.16;95030.06;5073681;28;20938;-79
2023/03/23 08:17:35;;;;;;;26.93;19.37;;;;;;;15.61;69.77;95022.63;5055721;28;20473;-79
2023/03/23 08:20:10;;;;;;;24.23;18.67;;;;;;;15.78;67.71;95021.72;5073996;28;20527;-79
2023/03/23 08:22:37;;;;;;;30.90;21.87;;;;;;;15.88;66.88;95021.56;5073890;28;20445;-79
2023/03/23 08:25:06;;;;;;;37.47;25.07;;;;;;;16.10;67.60;95015.72;5073684;28;20435;-78
2023/03/23 08:27:35;;;;;;;51.20;33.17;;;;;;;16.40;65.72;95013.47;5074172;28;20495;-79
2023/03/23 08:30:02;;;;;;;82.17;43.43;;;;;;;16.59;65.74;95015.00;5073126;28;20794;-80
2023/03/23 08:32:29;;;;;;;77.47;43.97;;;;;;;16.61;63.76;95010.38;5073703;28;20470;-79
2023/03/23 08:34:55;;;;;;;79.63;45.50;;;;;;;16.53;63.04;95011.19;5073806;28;20511;-79
2023/03/23 08:37:22;;;;;;;81.90;45.37;;;;;;;16.27;61.84;95010.47;5073928;28;20478;-80
2023/03/23 08:39:52;;;;;;;68.20;39.60;;;;;;;16.15;62.23;95011.75;5073397;28;20450;-79
2023/03/23 08:42:19;;;;;;;26.70;17.23;;;;;;;15.54;64.64;95005.69;5073396;28;20478;-79
2023/03/23 08:44:48;;;;;;;21.10;14.63;;;;;;;15.53;64.87;95004.03;5073231;28;20769;-79
2023/03/23 08:47:15;;;;;;;23.20;17.17;;;;;;;15.71;65.10;95014.56;5073143;28;20470;-79
2023/03/23 08:49:42;;;;;;;22.20;14.30;;;;;;;15.53;66.30;95006.66;5072570;28;20531;-79
2023/03/23 08:52:10;;;;;;;19.13;14.37;;;;;;;15.87;67.54;94997.91;5072950;28;20482;-80
2023/03/23 08:54:37;;;;;;;23.93;15.33;;;;;;;16.34;70.82;95004.38;5072608;28;20530;-79
2023/03/23 08:57:04;;;;;;;20.67;14.03;;;;;;;16.43;64.01;94999.91;5073503;28;20473;-79
2023/03/23 08:59:31;;;;;;;13.80;11.00;;;;;;;16.53;59.28;95005.91;5054876;28;20862;-79
2023/03/23 09:02:00;;;;;;;16.73;12.67;;;;;;;16.34;58.76;95007.00;5054954;28;20439;-78
2023/03/23 09:04:28;;;;;;;13.00;9.77;;;;;;;15.76;58.61;95001.69;5073143;28;20455;-83
2023/03/23 09:06:56;;;;;;;15.30;11.53;;;;;;;16.15;59.27;95001.16;5038273;28;20450;-86
2023/03/23 09:09:23;;;;;;;9.10;8.30;;;;;;;15.70;55.11;95007.63;5073052;28;20436;-79
2023/03/23 09:11:50;;;;;;;11.80;9.10;;;;;;;15.84;55.57;95001.72;5073081;28;20817;-78
2023/03/23 09:14:18;;;;;;;8.60;7.70;;;;;;;15.91;54.59;94994.81;5073394;28;20443;-80
2023/03/23 09:16:46;;;;;;;11.70;8.13;;;;;;;15.30;56.29;95002.91;5073086;28;20453;-81
2023/03/23 09:19:15;;;;;;;10.70;7.80;;;;;;;15.37;58.02;94996.03;5073214;28;20440;-76
2023/03/23 09:21:42;;;;;;;10.70;7.30;;;;;;;15.53;54.22;94996.09;5054047;28;20444;-81
2023/03/23 09:24:12;;;;;;;10.40;8.30;;;;;;;15.82;55.86;94994.94;5073232;28;20552;-80
2023/03/23 09:26:39;;;;;;;8.10;7.30;;;;;;;15.57;55.23;94997.44;5038977;28;20857;-80
2023/03/23 09:29:06;;;;;;;9.43;8.43;;;;;;;15.87;54.66;94997.91;5072850;28;20478;-81
2023/03/23 09:31:33;;;;;;;10.47;7.53;;;;;;;15.93;53.93;94992.00;5073221;28;20467;-85
2023/03/23 09:34:00;;;;;;;8.50;6.90;;;;;;;15.61;52.37;95001.47;5072934;28;20448;-82
2023/03/23 09:36:31;;;;;;;10.87;7.53;;;;;;;15.40;54.07;94995.69;5073683;28;20469;-83
2023/03/23 09:39:00;;;;;;;11.67;7.83;;;;;;;15.75;55.11;94986.81;5073128;28;20473;-83
2023/03/23 09:41:45;;;;;;;8.57;6.67;;;;;;;16.10;54.50;94988.41;5073353;28;20439;-83
2023/03/23 09:44:22;;;;;;;8.57;7.67;;;;;;;16.26;54.00;94987.63;5054517;28;20455;-83
2023/03/23 09:46:58;;;;;;;10.07;7.60;;;;;;;15.81;53.67;94980.88;5073042;28;20962;-83
2023/03/23 09:49:28;;;;;;;10.47;7.50;;;;;;;15.91;55.95;94972.81;5073289;28;20432;-83
2023/03/23 09:51:59;;;;;;;10.10;6.90;;;;;;;15.63;55.13;94980.16;5073381;28;20433;-82
2023/03/23 09:54:31;;;;;;;10.60;8.23;;;;;;;15.46;54.57;94981.84;5072328;28;20443;-83
2023/03/23 09:57:02;;;;;;;9.10;8.20;;;;;;;15.77;54.90;94976.88;5072359;28;20457;-82
2023/03/23 09:59:35;;;;;;;17.13;7.87;;;;;;;15.93;54.40;94978.78;5072443;28;20860;-81
2023/03/23 10:02:14;;;;;;;9.17;7.10;;;;;;;15.87;53.13;94974.94;5072496;28;20595;-80
2023/03/23 10:04:46;;;;;;;8.27;6.67;;;;;;;15.65;54.98;94967.59;5072726;28;21008;-80
2023/03/23 10:07:16;;;;;;;10.07;7.70;;;;;;;15.91;56.04;94968.34;5075560;28;20460;-78
2023/03/23 10:09:46;;;;;;;11.50;7.80;;;;;;;15.61;55.40;94967.09;5076215;28;20453;-77
2023/03/23 10:12:22;;;;;;;9.77;7.97;;;;;;;15.52;56.10;94967.16;5076175;28;20474;-78
2023/03/23 10:15:00;;;;;;;8.83;7.93;;;;;;;15.51;55.30;94966.31;5075348;28;20480;-77
2023/03/23 10:17:30;;;;;;;10.60;8.23;;;;;;;15.71;56.81;94959.00;5075463;28;20570;-77
2023/03/23 10:20:15;;;;;;;11.07;7.33;;;;;;;15.26;55.95;94968.00;5075580;28;20596;-77
2023/03/23 10:22:50;;;;;;;10.80;7.93;;;;;;;15.63;63.39;94959.81;5076050;28;20535;-78
2023/03/23 10:25:23;;;;;;;10.57;7.83;;;;;;;15.57;56.01;94957.75;5076472;28;20453;-78
2023/03/23 10:27:56;;;;;;;9.73;7.10;;;;;;;15.15;55.90;94955.91;5058148;28;20448;-77
2023/03/23 10:30:28;;;;;;;8.87;7.47;;;;;;;15.34;57.33;94952.22;5075847;28;20853;-78
2023/03/23 10:32:59;;;;;;;8.70;7.07;;;;;;;15.30;58.70;94953.50;5076574;28;20537;-77
2023/03/23 10:35:30;;;;;;;10.77;7.47;;;;;;;15.10;54.96;94962.66;5075573;28;20457;-78
2023/03/23 10:38:03;;;;;;;8.80;6.70;;;;;;;15.49;56.91;94953.25;5075673;28;20528;-77
2023/03/23 10:40:32;;;;;;;8.23;7.33;;;;;;;15.63;57.83;94946.59;5074575;28;20440;-78
2023/03/23 10:42:59;;;;;;;9.63;7.13;;;;;;;15.35;54.90;94953.88;5074842;28;20447;-78
2023/03/23 10:45:29;;;;;;;11.33;8.43;;;;;;;15.16;55.82;94952.28;5075927;28;20453;-78
2023/03/23 10:48:02;;;;;;;8.77;7.87;;;;;;;15.03;59.23;94943.91;5075505;28;20480;-78
2023/03/23 10:50:33;;;;;;;12.80;7.83;;;;;;;15.17;57.82;94942.53;5057161;28;20449;-77
2023/03/23 10:53:05;;;;;;;9.20;8.23;;;;;;;15.24;58.44;94951.47;5074418;28;20975;-78
2023/03/23 10:55:40;;;;;;;12.30;9.70;;;;;;;15.03;57.90;94930.69;5075779;28;20441;-77
2023/03/23 10:58:09;;;;;;;10.00;8.70;;;;;;;14.81;57.91;94950.56;5075657;28;20489;-78
2023/03/23 11:00:42;;;;;;;11.10;9.37;;;;;;;14.76;58.35;94952.00;5075525;28;20502;-78
2023/03/23 11:03:25;;;;;;;9.97;8.87;;;;;;;15.32;63.90;94934.81;5075045;28;20474;-78
2023/03/23 11:05:57;;;;;;;10.53;7.70;;;;;;;15.26;57.58;94946.03;5075128;28;20449;-78
2023/03/23 11:08:30;;;;;;;7.73;6.60;;;;;;;15.31;57.48;94931.34;5075141;28;21001;-78
2023/03/23 11:11:09;;;;;;;10.00;8.47;;;;;;;15.43;56.96;94938.03;5075125;28;21003;-83
2023/03/23 11:13:40;;;;;;;11.10;8.47;;;;;;;15.46;57.52;94936.88;5075492;28;20855;-79
2023/03/23 11:16:11;;;;;;;8.67;7.77;;;;;;;15.35;55.64;94935.38;5074840;28;20800;-83
2023/03/23 11:18:46;;;;;;;10.77;9.17;;;;;;;15.40;56.99;94925.13;5074315;28;20508;-80
2023/03/23 11:21:17;;;;;;;9.73;8.73;;;;;;;15.45;56.38;94914.91;5057024;28;20440;-80
2023/03/23 11:23:54;;;;;;;9.53;8.23;;;;;;;15.45;56.20;94914.91;5074857;28;20850;-80
2023/03/23 11:26:28;;;;;;;8.50;7.43;;;;;;;15.36;56.67;94913.22;5074709;28;20442;-80
2023/03/23 11:29:00;;;;;;;10.83;8.20;;;;;;;15.48;57.02;94911.94;5074810;28;20773;-81
2023/03/23 11:31:33;;;;;;;9.73;8.73;;;;;;;15.53;57.64;94910.63;5074012;28;20832;-81
2023/03/23 11:34:12;;;;;;;8.90;8.00;;;;;;;15.72;59.02;94903.28;5074076;28;20529;-80
2023/03/23 11:36:45;;;;;;;13.33;8.40;;;;;;;15.95;56.44;94900.06;5074399;28;20445;-80